Time;durP1;ratioP1;P1;durP2;ratioP2;P2;SDS_P1;SDS_P2;PMS_P1;PMS_P2;Temp;Humidity;BMP_temperature;BMP_pressure;BME280_temperature;BME280_humidity;BME280_pressure;Samples;Min_cycle;Max_cycle;Signal;HPM_P1;HPM_P2
2020/12/07 00:01:13;;;;;;;18.83;8.80;;;;;;;-6.50;63.42;102109.11;1679078;85;21160;-80
2020/12/07 00:03:40;;;;;;;;;;;;;;;-6.48;63.31;102127.20;1678225;85;21810;-80
2020/12/07 00:06:07;;;;;;;28.23;9.63;;;;;;;-6.58;63.31;102111.45;1680876;84;20170;-81
2020/12/07 00:08:35;;;;;;;;;;;;;;;-6.58;63.37;102133.05;1669904;84;21195;-81
2020/12/07 00:11:03;;;;;;;16.40;7.53;;;;;;;-6.57;63.16;102116.62;1633458;86;20170;-79
2020/12/07 00:13:31;;;;;;;22.40;8.47;;;;;;;-6.66;63.48;102113.77;1638873;86;21340;-79
2020/12/07 00:15:58;;;;;;;16.17;8.00;;;;;;;-6.66;63.41;102115.06;1652874;85;21206;-80
2020/12/07 00:18:26;;;;;;;22.73;8.83;;;;;;;-6.70;63.39;102132.89;1643408;86;21674;-81
2020/12/07 00:20:55;;;;;;;16.53;9.07;;;;;;;-6.70;63.48;102126.41;1655210;85;21193;-82
2020/12/07 00:23:22;;;;;;;;;;;;;;;-6.64;63.24;102124.12;1655326;84;21191;-81
2020/12/07 00:25:48;;;;;;;16.53;8.97;;;;;;;-6.69;63.34;102133.73;1652782;85;20291;-81
2020/12/07 00:28:15;;;;;;;16.27;9.77;;;;;;;-6.73;63.40;102125.16;1684217;84;21329;-81
2020/12/07 00:30:42;;;;;;;;;;;;;;;-6.70;63.29;102136.78;1670374;84;21333;-80
2020/12/07 00:33:09;;;;;;;16.40;8.47;;;;;;;-6.71;63.10;102125.13;1643544;85;20199;-79
2020/12/07 00:35:36;;;;;;;24.40;10.63;;;;;;;-6.75;63.12;102123.05;1667656;84;21162;-82
2020/12/07 00:38:03;;;;;;;16.33;7.77;;;;;;;-6.74;63.03;102121.30;1661139;84;21203;-79
2020/12/07 00:40:32;;;;;;;17.20;8.63;;;;;;;-6.73;63.00;102127.75;1665455;84;21566;-81
2020/12/07 00:43:00;;;;;;;20.90;10.10;;;;;;;-6.76;63.00;102123.95;1662129;83;21112;-79
2020/12/07 00:45:26;;;;;;;;;;;;;;;-6.79;63.04;102113.63;1702686;82;21325;-80
2020/12/07 00:47:53;;;;;;;15.47;8.57;;;;;;;-6.78;63.00;102136.52;1682188;83;20182;-82
2020/12/07 00:50:20;;;;;;;24.27;10.33;;;;;;;-6.86;63.02;102134.94;1687825;82;21204;-80
2020/12/07 00:52:47;;;;;;;18.53;8.60;;;;;;;-6.83;63.04;102119.78;1640658;84;21574;-80
2020/12/07 00:55:14;;;;;;;22.73;10.10;;;;;;;-6.91;63.11;102136.80;1691923;83;21221;-81
2020/12/07 00:57:41;;;;;;;25.97;11.47;;;;;;;-6.96;63.11;102113.15;1685100;83;21150;-80
2020/12/07 01:00:08;;;;;;;29.20;11.67;;;;;;;-6.95;63.12;102116.13;1651667;84;21213;-81
2020/12/07 01:02:35;;;;;;;22.07;9.93;;;;;;;-6.94;63.14;102126.48;1696777;83;21316;-82
2020/12/07 01:05:04;;;;;;;17.60;9.13;;;;;;;-6.91;63.06;102121.23;1668938;84;21941;-83
2020/12/07 01:07:33;;;;;;;18.77;10.23;;;;;;;-6.95;63.14;102123.49;1643827;85;21241;-81
2020/12/07 01:10:00;;;;;;;18.67;10.30;;;;;;;-6.98;63.11;102131.32;1664881;84;21225;-80
2020/12/07 01:12:27;;;;;;;;;;;;;;;-6.92;62.93;102119.52;1649395;85;21544;-81
2020/12/07 01:14:55;;;;;;;16.23;9.28;;;;;;;-6.91;62.96;102117.77;1670877;84;20207;-82
2020/12/07 01:17:22;;;;;;;17.83;9.30;;;;;;;-6.90;62.93;102105.23;1677722;84;21225;-82
2020/12/07 01:19:52;;;;;;;16.70;8.77;;;;;;;-6.89;62.86;102105.66;1673663;84;21727;-82
2020/12/07 01:22:21;;;;;;;17.50;10.47;;;;;;;-6.91;62.72;102099.20;1680646;84;21194;-80
2020/12/07 01:24:50;;;;;;;16.67;9.17;;;;;;;-6.87;62.75;102111.66;1680206;84;21139;-80
2020/12/07 01:27:18;;;;;;;14.63;7.27;;;;;;;-6.85;62.69;102114.63;1683378;84;21321;-80
2020/12/07 01:29:45;;;;;;;16.03;8.60;;;;;;;-6.79;62.45;102112.79;1684232;84;21202;-81
2020/12/07 01:32:12;;;;;;;19.97;9.80;;;;;;;-6.86;62.50;102119.38;1682164;84;21205;-81
2020/12/07 01:34:40;;;;;;;18.60;9.83;;;;;;;-6.90;62.51;102109.97;1670602;84;21248;-79
2020/12/07 01:37:07;;;;;;;11.40;7.87;;;;;;;-6.93;62.52;102105.28;1667921;84;21037;-81
2020/12/07 01:39:36;;;;;;;18.90;8.63;;;;;;;-6.97;62.65;102103.20;1671229;84;21174;-80
2020/12/07 01:42:05;;;;;;;14.63;7.40;;;;;;;-7.00;62.66;102109.77;1638173;86;21197;-80
2020/12/07 01:44:33;;;;;;;17.07;9.17;;;;;;;-7.01;62.79;102107.20;1629671;87;21195;-80
2020/12/07 01:47:01;;;;;;;12.73;7.33;;;;;;;-7.07;62.85;102109.02;1673030;84;21199;-80
2020/12/07 01:49:27;;;;;;;16.27;10.13;;;;;;;-7.06;62.86;102115.08;1624154;84;21172;-79
2020/12/07 01:51:54;;;;;;;15.33;8.97;;;;;;;-7.03;62.84;102108.52;1675448;84;21213;-79
2020/12/07 01:54:21;;;;;;;;;;;;;;;-7.02;62.79;102126.25;1659427;84;21176;-79
2020/12/07 01:56:50;;;;;;;14.47;8.37;;;;;;;-6.98;62.52;102111.87;1677036;84;20591;-82
2020/12/07 01:59:17;;;;;;;13.77;7.60;;;;;;;-7.14;62.77;102110.06;1647665;85;21642;-82
2020/12/07 02:01:44;;;;;;;12.67;7.90;;;;;;;-7.13;62.77;102107.02;1674549;84;21711;-81
2020/12/07 02:04:11;;;;;;;18.53;9.93;;;;;;;-7.13;62.80;102106.56;1667415;84;21754;-80
2020/12/07 02:06:39;;;;;;;12.57;6.73;;;;;;;-7.15;62.76;102112.67;1665913;84;21241;-81
2020/12/07 02:09:06;;;;;;;16.07;10.53;;;;;;;-7.51;62.89;102063.30;1660833;85;21141;-81
2020/12/07 02:11:34;;;;;;;14.83;9.47;;;;;;;-7.23;62.88;102099.88;1684560;84;21166;-81
2020/12/07 02:14:02;;;;;;;16.57;8.60;;;;;;;-7.26;62.94;102083.93;1671185;84;21662;-82
2020/12/07 02:16:31;;;;;;;14.80;9.37;;;;;;;-7.30;62.98;102089.22;1705643;83;21180;-82
2020/12/07 02:18:59;;;;;;;15.23;8.50;;;;;;;-7.33;63.07;102090.11;1676511;85;21283;-80
2020/12/07 02:21:32;;;;;;;12.53;8.27;;;;;;;-7.31;62.94;102103.92;1687933;83;21859;-81
2020/12/07 02:24:12;;;;;;;14.07;8.80;;;;;;;-7.25;62.81;102100.35;1764242;79;23179;-81
2020/12/07 02:26:41;;;;;;;18.33;9.17;;;;;;;-7.31;62.80;102099.16;1724363;80;21173;-80
2020/12/07 02:29:08;;;;;;;16.37;8.17;;;;;;;-7.33;62.78;102108.25;1730573;80;21169;-79
2020/12/07 02:31:40;;;;;;;13.57;8.13;;;;;;;-7.32;62.67;102103.94;1732868;82;21153;-79
2020/12/07 02:34:07;;;;;;;13.67;8.23;;;;;;;-7.34;62.66;102108.30;1735037;80;21255;-79
2020/12/07 02:36:36;;;;;;;18.03;8.37;;;;;;;-7.32;62.51;102107.38;1694765;83;21321;-81
2020/12/07 02:39:06;;;;;;;17.00;6.93;;;;;;;-7.29;62.41;102108.63;1663708;83;21391;-83
2020/12/07 02:41:35;;;;;;;14.17;8.73;;;;;;;-7.36;62.28;102099.26;1679407;84;21417;-82
2020/12/07 02:44:03;;;;;;;19.47;9.90;;;;;;;-7.36;62.40;102096.67;1683523;83;21229;-81
2020/12/07 02:46:30;;;;;;;;;;;;;;;-7.35;62.38;102101.41;1692630;83;21192;-80
2020/12/07 02:48:57;;;;;;;19.90;8.20;;;;;;;-7.37;62.28;102097.98;1667525;83;20447;-80
2020/12/07 02:51:24;;;;;;;17.80;8.67;;;;;;;-7.40;62.23;102122.64;1692379;83;21136;-81
2020/12/07 02:53:51;;;;;;;13.13;6.70;;;;;;;-7.46;62.21;102114.13;1694429;81;21166;-81
2020/12/07 02:56:22;;;;;;;11.80;6.97;;;;;;;-7.47;62.14;102116.75;1685807;83;21138;-82
2020/12/07 02:58:51;;;;;;;18.03;9.00;;;;;;;-7.53;62.31;102122.05;1683763;83;21175;-81
2020/12/07 03:01:18;;;;;;;12.17;7.33;;;;;;;-7.46;62.13;102112.84;1652609;85;21771;-82
2020/12/07 03:03:45;;;;;;;14.97;8.63;;;;;;;-7.47;62.26;102120.63;1688458;83;21195;-81
2020/12/07 03:06:15;;;;;;;14.97;7.37;;;;;;;-7.43;62.13;102111.91;1667630;81;21716;-79
2020/12/07 03:08:42;;;;;;;15.10;8.33;;;;;;;-7.43;61.95;102114.50;1654725;86;21178;-78
2020/12/07 03:11:12;;;;;;;16.20;9.37;;;;;;;-7.41;61.73;102126.98;1651602;86;21309;-81
2020/12/07 03:13:40;;;;;;;12.73;7.60;;;;;;;-7.44;61.75;102137.39;1636250;85;21199;-81
2020/12/07 03:16:08;;;;;;;12.60;6.30;;;;;;;-7.46;61.78;102130.97;1650815;85;21203;-85
2020/12/07 03:18:36;;;;;;;8.57;6.17;;;;;;;-7.82;61.83;102084.57;1644121;85;21345;-81
2020/12/07 03:21:07;;;;;;;12.93;6.80;;;;;;;-7.51;61.86;102152.66;1642957;85;21213;-83
2020/12/07 03:23:35;;;;;;;15.33;8.87;;;;;;;-7.58;61.96;102139.41;1652474;85;21879;-82
2020/12/07 03:26:36;;;;;;;15.70;8.47;;;;;;;-7.51;61.84;102138.41;1801257;78;23129;-83
2020/12/07 03:29:04;;;;;;;14.27;8.60;;;;;;;-7.55;61.84;102118.19;1768491;79;21191;-84
2020/12/07 03:31:35;;;;;;;10.27;6.90;;;;;;;-7.49;61.76;102118.06;1771848;79;21140;-83
2020/12/07 03:34:04;;;;;;;15.93;9.40;;;;;;;-7.52;61.68;102130.22;1730724;81;22803;-84
2020/12/07 03:36:31;;;;;;;19.27;8.77;;;;;;;-7.54;61.78;102121.63;1704598;82;21208;-81
2020/12/07 03:38:59;;;;;;;17.83;9.93;;;;;;;-7.50;61.75;102118.93;1672027;84;21153;-80
2020/12/07 03:41:28;;;;;;;17.70;8.80;;;;;;;-7.66;61.48;102092.93;1670734;84;21349;-82
2020/12/07 03:43:56;;;;;;;22.93;10.50;;;;;;;-7.56;61.68;102113.88;1676586;84;21212;-82
2020/12/07 03:46:25;;;;;;;14.10;7.43;;;;;;;-7.54;61.63;102116.44;1671366;84;21179;-82
2020/12/07 03:48:56;;;;;;;15.77;9.53;;;;;;;-7.55;61.53;102116.02;1668469;84;21368;-82
2020/12/07 03:51:23;;;;;;;14.60;8.93;;;;;;;-7.57;61.66;102111.30;1695096;83;21365;-83
2020/12/07 03:53:50;;;;;;;11.87;7.10;;;;;;;-7.55;61.52;102109.54;1697346;83;21668;-83
2020/12/07 03:56:18;;;;;;;16.23;8.93;;;;;;;-7.56;61.54;102103.52;1668102;84;21195;-83
2020/12/07 03:58:46;;;;;;;11.77;6.53;;;;;;;-7.57;61.52;102124.25;1663916;84;21176;-83
2020/12/07 04:01:16;;;;;;;17.90;8.30;;;;;;;-7.62;61.29;102121.77;1683505;83;21217;-82
2020/12/07 04:03:51;;;;;;;15.57;7.53;;;;;;;-7.70;61.65;102105.52;1687675;83;21212;-81
2020/12/07 04:06:24;;;;;;;21.23;9.23;;;;;;;-7.73;61.61;102119.36;1662417;84;21148;-83
2020/12/07 04:08:47;;;;;;;14.37;8.20;;;;;;;-7.74;61.87;102111.20;1654223;85;21788;-83
2020/12/07 04:11:14;;;;;;;;;;;;;;;-7.68;61.72;102094.25;1657777;85;21191;-82
2020/12/07 04:13:41;;;;;;;18.42;8.90;;;;;;;-7.73;61.88;102098.64;1645631;86;20256;-85
2020/12/07 04:16:08;;;;;;;17.05;9.08;;;;;;;-7.75;61.77;102103.00;1655386;85;21781;-84
2020/12/07 04:18:35;;;;;;;;;;;;;;;-7.70;61.58;102097.31;1657937;85;21219;-83
2020/12/07 04:21:02;;;;;;;14.77;6.37;;;;;;;-7.89;61.45;102073.91;1637122;86;20269;-85
2020/12/07 04:23:29;;;;;;;16.40;8.70;;;;;;;-7.66;61.42;102100.25;1645401;86;21721;-81
2020/12/07 04:25:59;;;;;;;12.10;6.53;;;;;;;-7.73;61.44;102113.34;1641724;86;21187;-82
2020/12/07 04:28:26;;;;;;;19.30;9.87;;;;;;;-7.83;61.58;102121.26;1658216;85;21207;-84
2020/12/07 04:30:57;;;;;;;14.87;7.93;;;;;;;-7.78;61.57;102109.52;1656028;85;21867;-83
2020/12/07 04:33:24;;;;;;;19.67;8.77;;;;;;;-7.75;61.35;102115.09;1661147;85;22300;-82
2020/12/07 04:35:51;;;;;;;12.90;6.63;;;;;;;-7.84;61.76;102100.57;1645564;81;21166;-83
2020/12/07 04:38:18;;;;;;;14.17;7.73;;;;;;;-7.82;61.61;102103.98;1665060;84;21239;-84
2020/12/07 04:40:47;;;;;;;16.50;9.83;;;;;;;-7.94;61.94;102088.69;1644677;85;21227;-83
2020/12/07 04:43:14;;;;;;;16.33;8.63;;;;;;;-7.92;61.93;102086.92;1618694;87;21851;-81
2020/12/07 04:45:41;;;;;;;15.73;8.10;;;;;;;-7.84;61.78;102085.04;1642364;85;21664;-80
2020/12/07 04:48:08;;;;;;;16.07;8.63;;;;;;;-7.83;61.60;102085.02;1623787;86;21231;-83
2020/12/07 04:50:35;;;;;;;;;;;;;;;-7.89;61.68;102075.20;1650751;85;21234;-81
2020/12/07 04:53:01;;;;;;;20.67;8.67;;;;;;;-7.85;61.61;102084.20;1648193;85;20191;-81
2020/12/07 04:55:29;;;;;;;;;;;;;;;-8.03;61.85;102087.94;1652262;85;21202;-85
2020/12/07 04:57:59;;;;;;;13.17;6.40;;;;;;;-7.96;61.70;102091.74;1651912;85;20209;-82
2020/12/07 05:00:26;;;;;;;15.67;8.53;;;;;;;-8.05;61.87;102075.47;1645475;85;21219;-82
2020/12/07 05:02:53;;;;;;;;;;;;;;;-8.00;61.81;102079.70;1656368;83;21182;-85
2020/12/07 05:05:21;;;;;;;15.60;8.60;;;;;;;-7.95;61.74;102082.62;1644482;84;20561;-81
2020/12/07 05:07:50;;;;;;;17.23;7.80;;;;;;;-7.91;61.61;102074.37;1703966;83;21317;-85
2020/12/07 05:10:35;;;;;;;17.17;9.03;;;;;;;-7.87;61.57;102076.05;1707938;81;21195;-83
2020/12/07 05:15:53;;;;;;;15.07;8.87;;;;;;;-7.79;60.94;102079.34;1691367;83;21403;-84
2020/12/07 05:18:20;;;;;;;17.47;8.50;;;;;;;-7.81;61.01;102083.70;1703604;83;21180;-83
2020/12/07 05:20:48;;;;;;;;;;;;;;;-7.79;60.94;102074.63;1705740;83;21361;-84
2020/12/07 05:23:16;;;;;;;14.90;6.97;;;;;;;-7.76;60.97;102090.95;1703888;83;20287;-85
2020/12/07 05:25:45;;;;;;;18.80;8.77;;;;;;;-7.81;60.88;102085.00;1704287;83;21492;-83
2020/12/07 05:28:15;;;;;;;18.63;9.70;;;;;;;-7.77;60.84;102080.62;1703320;83;21160;-83
2020/12/07 05:30:46;;;;;;;16.60;8.40;;;;;;;-7.75;60.74;102073.22;1689908;83;21255;-86
2020/12/07 05:33:17;;;;;;;17.77;8.83;;;;;;;-7.71;60.63;102077.91;1703412;83;21298;-85
2020/12/07 05:35:51;;;;;;;18.97;9.73;;;;;;;-7.72;60.51;102081.36;1678482;83;21258;-81
2020/12/07 05:38:16;;;;;;;16.07;9.43;;;;;;;-7.74;60.49;102072.78;1685991;83;21188;-85
2020/12/07 05:40:43;;;;;;;15.93;7.65;;;;;;;-7.78;60.59;102070.68;1657302;84;21151;-83
2020/12/07 05:43:12;;;;;;;20.20;10.37;;;;;;;-7.79;60.50;102079.80;1703689;83;21144;-84
2020/12/07 05:45:41;;;;;;;20.93;10.00;;;;;;;-7.87;60.75;102081.23;1699110;83;21399;-85
2020/12/07 05:48:09;;;;;;;20.97;10.60;;;;;;;-7.82;60.82;102080.69;1705039;83;21211;-84
2020/12/07 05:50:42;;;;;;;23.33;10.53;;;;;;;-7.79;60.69;102072.88;1659113;84;21240;-82
2020/12/07 05:53:10;;;;;;;17.93;9.50;;;;;;;-7.83;60.84;102088.05;1657638;84;21733;-85
2020/12/07 05:55:39;;;;;;;18.80;10.03;;;;;;;-7.76;60.63;102090.08;1685584;83;21199;-83
2020/12/07 05:58:07;;;;;;;16.57;9.57;;;;;;;-7.73;60.54;102090.03;1698027;83;21395;-83
2020/12/07 06:00:35;;;;;;;28.33;10.93;;;;;;;-7.66;60.40;102101.55;1669487;84;21364;-83
2020/12/07 06:03:05;;;;;;;21.07;9.53;;;;;;;-7.62;60.29;102101.50;1703490;83;21244;-79
2020/12/07 06:05:32;;;;;;;18.77;9.20;;;;;;;-7.64;60.13;102110.13;1698591;83;21104;-83
2020/12/07 06:08:15;;;;;;;28.43;10.87;;;;;;;-7.72;60.28;102089.13;1684003;83;21188;-83
2020/12/07 06:10:51;;;;;;;23.23;10.27;;;;;;;-7.76;60.54;102091.37;1686078;83;21199;-83
2020/12/07 06:13:22;;;;;;;17.73;8.47;;;;;;;-7.77;60.66;102078.88;1646885;83;21198;-85
2020/12/07 06:15:50;;;;;;;22.77;9.70;;;;;;;-7.70;60.46;102086.11;1677748;84;21321;-85
2020/12/07 06:21:31;;;;;;;18.13;9.80;;;;;;;-7.66;60.48;102082.57;1762338;79;22926;-87
2020/12/07 06:23:57;;;;;;;;;;;;;;;-7.64;60.24;102095.89;1719014;82;21187;-84
2020/12/07 06:26:24;;;;;;;21.20;10.87;;;;;;;-7.56;60.15;102089.72;1736041;80;20565;-85
2020/12/07 06:28:52;;;;;;;21.60;11.33;;;;;;;-7.54;60.12;102086.20;1730415;82;21184;-84
2020/12/07 06:31:20;;;;;;;20.10;10.13;;;;;;;-7.49;59.87;102086.98;1741007;80;21187;-84
2020/12/07 06:33:52;;;;;;;20.27;11.07;;;;;;;-7.38;59.69;102079.42;1727004;82;21286;-86
2020/12/07 06:36:32;;;;;;;21.73;11.70;;;;;;;-7.39;59.67;102085.51;1684888;81;21054;-83
2020/12/07 06:39:04;;;;;;;21.03;11.60;;;;;;;-7.44;59.80;102086.46;1643784;85;21322;-84
2020/12/07 06:41:46;;;;;;;30.93;11.50;;;;;;;-7.41;59.75;102085.53;1668441;84;21625;-85
2020/12/07 06:44:20;;;;;;;20.33;12.17;;;;;;;-7.39;59.75;102075.15;1668417;85;21357;-83
2020/12/07 06:49:48;;;;;;;25.53;12.53;;;;;;;-7.31;59.50;102075.42;1667243;85;21610;-83
2020/12/07 06:52:14;;;;;;;22.23;11.47;;;;;;;-7.26;59.64;102070.13;1667573;84;21212;-84
2020/12/07 06:55:05;;;;;;;18.97;10.77;;;;;;;-7.20;59.45;102066.11;1663107;85;21166;-87
2020/12/07 06:57:46;;;;;;;15.72;9.90;;;;;;;-7.14;59.25;102091.92;1661522;84;21158;-86
2020/12/07 07:00:25;;;;;;;11.80;8.60;;;;;;;-7.21;59.40;102079.09;1645226;85;21159;-84
2020/12/07 07:02:57;;;;;;;21.93;8.57;;;;;;;-7.19;59.48;102077.34;1666517;85;21345;-85
2020/12/07 07:05:29;;;;;;;20.07;11.40;;;;;;;-7.59;59.68;102028.48;1663701;83;21621;-87
2020/12/07 07:07:59;;;;;;;15.37;8.77;;;;;;;-7.21;59.64;102081.68;1660377;85;21209;-84
2020/12/07 07:10:28;;;;;;;21.53;8.80;;;;;;;-7.12;59.32;102075.02;1659961;85;21170;-82
2020/12/07 07:12:55;;;;;;;11.50;7.77;;;;;;;-7.04;59.18;102082.20;1658176;85;21107;-85
2020/12/07 07:15:23;;;;;;;16.63;9.83;;;;;;;-7.02;59.04;102073.11;1665191;85;21491;-88
2020/12/07 07:17:50;;;;;;;20.17;10.60;;;;;;;-6.93;58.85;102077.64;1663409;85;21653;-87
2020/12/07 07:20:20;;;;;;;20.20;9.73;;;;;;;-6.83;58.85;102086.52;1641892;85;21176;-89
2020/12/07 07:23:01;;;;;;;26.48;12.30;;;;;;;-6.79;58.44;102085.11;1649832;85;21188;-86
2020/12/07 07:28:31;;;;;;;23.87;10.90;;;;;;;-6.72;58.09;102059.45;1815476;77;23041;-84
2020/12/07 07:31:04;;;;;;;15.53;8.97;;;;;;;-6.84;58.03;102076.56;1745121;81;21191;-82
2020/12/07 07:33:34;;;;;;;16.87;9.30;;;;;;;-6.79;58.16;102092.89;1768226;80;21128;-86
2020/12/07 07:36:26;;;;;;;18.40;9.07;;;;;;;-6.75;57.92;102096.27;1750046;80;21096;-85
2020/12/07 07:38:54;;;;;;;16.63;9.20;;;;;;;-6.80;58.23;102085.98;1680672;83;21548;-85
2020/12/07 07:41:25;;;;;;;22.07;9.77;;;;;;;-6.71;57.92;102088.38;1714626;82;21366;-85
2020/12/07 07:43:55;;;;;;;18.07;9.37;;;;;;;-6.69;57.70;102091.78;1715812;82;21527;-82
2020/12/07 07:46:25;;;;;;;24.07;12.27;;;;;;;-6.77;57.95;102052.21;1726422;79;21932;-86
2020/12/07 07:49:18;;;;;;;23.43;12.23;;;;;;;-6.69;57.76;102068.44;1717726;82;21183;-86
2020/12/07 08:16:58;;;;;;;21.30;11.17;;;;;;;-6.39;56.79;102071.66;1731592;81;21148;-89
2020/12/07 08:19:29;;;;;;;17.77;9.53;;;;;;;-6.43;56.53;102076.07;1697885;83;21187;-85
2020/12/07 08:22:18;;;;;;;16.70;8.53;;;;;;;-6.33;56.37;102068.91;1690374;83;21219;-87
2020/12/07 08:27:37;;;;;;;21.13;9.80;;;;;;;-6.15;56.32;102041.21;1800092;77;23412;-86
2020/12/07 08:30:11;;;;;;;19.03;9.13;;;;;;;-6.09;55.98;102063.11;1774850;80;21147;-85
2020/12/07 08:32:37;;;;;;;17.50;8.83;;;;;;;-5.94;55.69;102049.30;1764811;79;21341;-90
2020/12/07 08:35:14;;;;;;;15.50;9.03;;;;;;;-5.89;55.32;102053.48;1759538;80;21203;-88
2020/12/07 08:37:43;;;;;;;16.85;8.00;;;;;;;-5.95;55.38;102047.16;1698813;83;21635;-87
2020/12/07 08:40:10;;;;;;;18.33;9.73;;;;;;;-5.86;55.23;102057.73;1692751;83;21245;-86
2020/12/07 08:42:40;;;;;;;16.87;9.50;;;;;;;-5.93;55.22;102056.22;1665127;84;21176;-87
2020/12/07 08:45:19;;;;;;;;;;;;;;;;;;;;;
2020/12/07 08:47:42;;;;;;;16.90;10.00;;;;;;;-5.83;55.12;102026.50;1661829;85;21349;-87
2020/12/07 08:50:13;;;;;;;14.13;8.87;;;;;;;-5.91;55.38;102047.94;1665369;84;21326;-88
2020/12/07 08:52:40;;;;;;;16.03;10.37;;;;;;;-6.30;55.15;101956.80;1648387;86;21589;-88
2020/12/07 08:55:08;;;;;;;14.93;7.43;;;;;;;-5.78;55.22;102040.64;1674262;84;21252;-84
2020/12/07 08:57:37;;;;;;;21.80;9.13;;;;;;;-5.84;55.40;102044.27;1641448;86;21188;-85
2020/12/07 09:00:04;;;;;;;;;;;;;;;-5.76;55.34;102033.70;1649521;86;21208;-85
2020/12/07 09:02:32;;;;;;;17.05;8.63;;;;;;;-5.62;55.26;102031.55;1648078;86;20178;-86
2020/12/07 09:05:00;;;;;;;;;;;;;;;-5.63;54.83;102038.08;1671096;84;21198;-88
2020/12/07 09:07:26;;;;;;;;;;;;;;;-5.63;54.75;102018.59;1702493;83;20229;-87
2020/12/07 09:09:55;;;;;;;15.73;7.27;;;;;;;-5.74;55.14;102030.15;1695993;84;20233;-87
2020/12/07 09:12:24;;;;;;;18.00;9.53;;;;;;;-5.99;54.99;101983.27;1698488;83;21187;-87
2020/12/07 09:14:50;;;;;;;;;;;;;;;-5.62;54.87;102021.16;1683746;84;21200;-86
2020/12/07 09:17:17;;;;;;;19.00;9.20;;;;;;;-5.62;54.87;102016.42;1677756;85;20170;-87
2020/12/07 09:19:46;;;;;;;13.70;6.20;;;;;;;-5.59;54.54;102013.74;1673212;85;21416;-89
2020/12/07 09:22:13;;;;;;;;;;;;;;;-5.61;54.45;102047.55;1694842;83;21144;-85
2020/12/07 09:24:40;;;;;;;13.28;9.30;;;;;;;-5.64;54.63;102009.95;1681246;83;20187;-86
2020/12/07 09:27:07;;;;;;;;;;;;;;;-5.59;54.76;102024.14;1685438;82;21176;-86
2020/12/07 09:29:34;;;;;;;14.73;7.00;;;;;;;-5.49;54.82;102033.36;1673489;84;20200;-85
2020/12/07 09:32:01;;;;;;;15.30;8.90;;;;;;;-5.45;54.52;102002.48;1675724;84;21281;-86
2020/12/07 09:34:30;;;;;;;17.47;9.90;;;;;;;-5.31;54.33;101997.75;1682652;84;21224;-88
2020/12/07 09:36:56;;;;;;;14.50;7.83;;;;;;;-5.27;54.25;102007.61;1658393;85;21171;-85
2020/12/07 09:39:23;;;;;;;;;;;;;;;-5.20;53.93;102006.96;1691903;84;21599;-83
2020/12/07 09:41:51;;;;;;;13.33;7.53;;;;;;;-5.18;53.83;102007.34;1671396;84;20234;-86
2020/12/07 09:44:22;;;;;;;17.87;9.43;;;;;;;-5.21;54.24;102000.08;1645568;85;21420;-88
2020/12/07 09:46:49;;;;;;;21.40;9.73;;;;;;;-5.11;54.14;102002.79;1685720;84;21349;-89
2020/12/07 09:49:16;;;;;;;16.90;9.50;;;;;;;-5.01;53.68;101991.66;1676039;84;21733;-86
2020/12/07 09:51:45;;;;;;;15.03;8.80;;;;;;;-4.93;53.59;101999.63;1673424;84;21634;-90
2020/12/07 09:54:16;;;;;;;12.90;8.17;;;;;;;-4.96;53.22;101993.21;1676790;84;21227;-90
2020/12/07 09:56:47;;;;;;;16.03;9.50;;;;;;;-4.92;53.42;101980.50;1652342;85;21300;-86
2020/12/07 09:59:16;;;;;;;16.90;8.73;;;;;;;-4.94;53.66;101987.51;1668721;84;21211;-86
2020/12/07 10:01:48;;;;;;;11.50;7.60;;;;;;;-4.83;53.37;101972.87;1678136;84;21381;-89
2020/12/07 10:04:18;;;;;;;12.40;7.83;;;;;;;-4.81;53.07;101980.17;1683400;84;21350;-85
2020/12/07 10:06:45;;;;;;;14.73;8.73;;;;;;;-4.79;53.02;101978.38;1682499;84;21107;-86
2020/12/07 10:09:12;;;;;;;24.10;10.80;;;;;;;-4.75;52.93;101963.52;1665436;85;21646;-87
2020/12/07 10:11:39;;;;;;;16.70;9.50;;;;;;;-4.73;52.96;101956.09;1678839;85;21165;-87
2020/12/07 10:14:08;;;;;;;15.50;9.30;;;;;;;-4.76;52.88;101944.92;1668177;84;21222;-88
2020/12/07 10:17:07;;;;;;;17.00;8.80;;;;;;;-4.40;52.88;101965.42;1794357;78;22831;-87
2020/12/07 10:19:35;;;;;;;18.00;9.13;;;;;;;-4.39;52.42;101951.05;1736747;80;21162;-87
2020/12/07 10:22:04;;;;;;;15.40;8.23;;;;;;;-4.35;52.29;101941.36;1723667;81;21269;-88
2020/12/07 10:24:38;;;;;;;16.57;9.63;;;;;;;-4.41;52.32;101945.48;1727491;80;21200;-87
2020/12/07 10:27:05;;;;;;;17.63;10.30;;;;;;;-4.44;52.56;101943.00;1702217;82;21335;-88
2020/12/07 10:30:11;;;;;;;16.77;9.50;;;;;;;-4.46;52.83;101934.37;1796593;78;22577;-87
2020/12/07 10:32:40;;;;;;;20.93;8.80;;;;;;;-4.46;53.12;101948.69;1721643;80;21125;-89
2020/12/07 10:35:09;;;;;;;21.50;9.33;;;;;;;-4.44;52.99;101954.72;1726344;80;21177;-88
2020/12/07 10:38:15;;;;;;;19.80;10.37;;;;;;;-4.36;52.77;101943.58;1856196;76;25379;-88
2020/12/07 10:40:42;;;;;;;19.13;9.07;;;;;;;-4.43;52.86;101947.29;1730579;81;21211;-87
2020/12/07 10:46:20;;;;;;;15.33;8.30;;;;;;;-4.46;53.34;101927.86;1779955;79;24747;-87
2020/12/07 10:49:09;;;;;;;18.87;7.73;;;;;;;-4.46;53.33;101922.23;1688939;82;21180;-86
2020/12/07 10:51:40;;;;;;;12.43;6.60;;;;;;;-4.39;53.18;101920.25;1722406;80;21646;-86
2020/12/07 10:54:16;;;;;;;13.93;7.90;;;;;;;-4.34;52.79;101919.64;1702364;82;21627;-85
2020/12/07 10:56:44;;;;;;;13.53;6.83;;;;;;;-4.38;52.65;101916.75;1716604;82;21206;-85
2020/12/07 10:59:32;;;;;;;9.37;6.03;;;;;;;-4.44;52.84;101916.52;1711378;82;21158;-86
2020/12/07 11:23:53;;;;;;;10.10;5.90;;;;;;;-4.63;53.73;101914.12;1856279;76;23503;-82
2020/12/07 11:26:45;;;;;;;14.73;8.87;;;;;;;-4.67;53.61;101876.97;1785040;79;23092;-84
2020/12/07 11:29:13;;;;;;;10.87;7.10;;;;;;;-4.64;53.48;101898.13;1722137;82;21208;-84
2020/12/07 11:31:40;;;;;;;14.77;7.93;;;;;;;-4.74;53.77;101891.93;1713522;82;21241;-84
2020/12/07 11:34:08;;;;;;;17.30;7.47;;;;;;;-4.63;53.65;101902.41;1722702;82;21622;-84
2020/12/07 11:36:39;;;;;;;16.13;8.43;;;;;;;-4.70;53.56;101905.69;1723702;82;21190;-84
2020/12/07 11:44:45;;;;;;;15.50;7.70;;;;;;;-4.43;53.43;101860.09;1798074;77;22969;-84
2020/12/07 11:47:14;;;;;;;16.00;9.20;;;;;;;-4.42;53.50;101870.91;1778191;78;21281;-84
2020/12/07 11:49:42;;;;;;;14.13;8.17;;;;;;;-4.35;53.71;101899.27;1769053;79;21667;-85
2020/12/07 11:52:09;;;;;;;15.10;7.93;;;;;;;-4.39;54.06;101860.37;1757219;80;21302;-86
2020/12/07 11:54:36;;;;;;;11.87;8.83;;;;;;;-4.37;54.06;101867.24;1759212;80;21200;-86
2020/12/07 11:57:10;;;;;;;16.40;8.37;;;;;;;-4.40;54.11;101867.80;1735207;81;21204;-85
2020/12/07 11:59:38;;;;;;;17.13;8.43;;;;;;;-4.42;54.22;101899.55;1726621;82;21184;-86
2020/12/07 12:02:05;;;;;;;15.10;8.77;;;;;;;-4.43;54.22;101893.47;1735714;81;21192;-88
2020/12/07 12:04:32;;;;;;;17.80;8.50;;;;;;;-4.44;54.19;101879.23;1738172;81;21337;-85
2020/12/07 12:06:59;;;;;;;15.43;7.77;;;;;;;-4.47;54.27;101889.28;1691096;82;21508;-82
2020/12/07 12:09:26;;;;;;;14.23;7.83;;;;;;;-4.51;54.22;101866.41;1676056;84;21179;-86
2020/12/07 12:12:05;;;;;;;12.23;8.37;;;;;;;-4.53;54.23;101867.37;1652789;85;21949;-86
2020/12/07 12:14:33;;;;;;;13.57;9.00;;;;;;;-4.63;54.60;101864.68;1686865;83;21658;-87
2020/12/07 12:17:00;;;;;;;14.10;9.10;;;;;;;-4.62;54.73;101882.01;1680088;84;21201;-87
2020/12/07 12:19:27;;;;;;;12.67;7.23;;;;;;;-4.62;54.73;101855.52;1673930;84;21211;-87
2020/12/07 12:21:54;;;;;;;13.90;8.70;;;;;;;-4.71;55.31;101853.23;1687133;83;21194;-89
2020/12/07 12:24:21;;;;;;;15.57;8.60;;;;;;;-4.63;55.28;101872.06;1692200;83;21183;-85
2020/12/07 12:26:48;;;;;;;13.67;9.13;;;;;;;-4.65;55.35;101869.09;1687950;83;21218;-86
2020/12/07 12:29:15;;;;;;;;;;;;;;;-4.65;55.43;101873.86;1686936;83;21191;-85
2020/12/07 12:31:42;;;;;;;17.23;9.00;;;;;;;-4.67;55.48;101878.70;1690063;83;20256;-84
2020/12/07 12:34:10;;;;;;;14.93;8.53;;;;;;;-4.72;55.52;101858.90;1688597;83;21337;-84
2020/12/07 12:36:38;;;;;;;10.77;7.63;;;;;;;-4.70;55.58;101857.55;1670497;82;21560;-85
2020/12/07 12:39:04;;;;;;;;;;;;;;;-4.66;55.63;101861.74;1675418;84;21646;-85
2020/12/07 12:41:31;;;;;;;14.40;8.53;;;;;;;-4.66;55.63;101873.45;1684251;85;20183;-84
2020/12/07 12:43:59;;;;;;;15.47;8.60;;;;;;;-4.68;55.77;101857.05;1676500;84;21220;-86
2020/12/07 12:46:26;;;;;;;10.10;6.10;;;;;;;-4.70;55.89;101856.25;1661360;85;21212;-90